X  Κλείσε Στοιχεία αεροπορικών μετεωρολογικών δεδομένων METAR     EHKD De Kooy Airport
θερμοκρασία
61°F θερμοκρασία
55°F Σημείο δρόσου
83% Υγρασία



Ανεμος
6 MPH
10 KM/H
3 M/S
5 KTS



340°
VVD
Τρέχουσες συνθήκες

Μερικώς συννεφιασμένος Μερικώς συννεφιασμένος
πίεση 1019.98 (hPa) - 30.12 (inHg)
Ορατότητα 6 (μίλι) - 9.7 (km)
Aεροδρόμιο
Κωδικός αεροδρομίου EHKD

Τοποθεσία: De Kooy Airport
Απόσταση: 34 (mi)

Metar:
EHKD 240217Z AUTO 34005KT 290V020 9999 FEW018 16/13 Q1020 BLU

ώρα: 24-07-2024 04:17 CEST